sensor_id;sensor_type;location;lat;lon;timestamp;P1;durP1;ratioP1;P2;durP2;ratioP2
39924;SDS011;25592;49.986;11.618;2024-02-15T00:01:27;167.53;;;49.60;;
39924;SDS011;25592;49.986;11.618;2024-02-15T00:04:12;169.60;;;50.23;;
39924;SDS011;25592;49.986;11.618;2024-02-15T00:06:58;171.30;;;50.60;;
39924;SDS011;25592;49.986;11.618;2024-02-15T00:09:43;175.00;;;51.80;;
39924;SDS011;25592;49.986;11.618;2024-02-15T00:12:32;176.93;;;52.83;;
39924;SDS011;25592;49.986;11.618;2024-02-15T00:15:17;178.93;;;53.97;;
39924;SDS011;25592;49.986;11.618;2024-02-15T00:18:04;178.87;;;52.77;;
39924;SDS011;25592;49.986;11.618;2024-02-15T00:20:49;174.73;;;50.33;;
39924;SDS011;25592;49.986;11.618;2024-02-15T00:23:35;170.97;;;50.73;;
39924;SDS011;25592;49.986;11.618;2024-02-15T00:26:21;171.00;;;50.67;;
39924;SDS011;25592;49.986;11.618;2024-02-15T00:29:06;171.93;;;51.47;;
39924;SDS011;25592;49.986;11.618;2024-02-15T00:31:52;169.70;;;48.03;;
39924;SDS011;25592;49.986;11.618;2024-02-15T00:34:38;181.37;;;51.97;;
39924;SDS011;25592;49.986;11.618;2024-02-15T00:37:24;170.53;;;48.97;;
39924;SDS011;25592;49.986;11.618;2024-02-15T00:40:09;170.47;;;49.20;;
39924;SDS011;25592;49.986;11.618;2024-02-15T00:42:55;170.40;;;48.47;;
39924;SDS011;25592;49.986;11.618;2024-02-15T00:45:40;172.73;;;50.27;;
39924;SDS011;25592;49.986;11.618;2024-02-15T00:48:26;171.43;;;48.33;;
39924;SDS011;25592;49.986;11.618;2024-02-15T00:51:13;171.17;;;48.70;;
39924;SDS011;25592;49.986;11.618;2024-02-15T00:53:59;169.40;;;47.77;;
39924;SDS011;25592;49.986;11.618;2024-02-15T00:56:46;170.63;;;48.90;;
39924;SDS011;25592;49.986;11.618;2024-02-15T00:59:31;175.43;;;50.73;;
39924;SDS011;25592;49.986;11.618;2024-02-15T01:02:20;172.17;;;50.60;;
39924;SDS011;25592;49.986;11.618;2024-02-15T01:05:06;171.47;;;49.47;;
39924;SDS011;25592;49.986;11.618;2024-02-15T01:07:52;176.87;;;55.67;;
39924;SDS011;25592;49.986;11.618;2024-02-15T01:10:40;172.30;;;50.33;;
39924;SDS011;25592;49.986;11.618;2024-02-15T01:13:26;171.87;;;50.17;;
39924;SDS011;25592;49.986;11.618;2024-02-15T01:16:11;170.83;;;49.43;;
39924;SDS011;25592;49.986;11.618;2024-02-15T01:18:57;171.17;;;48.87;;
39924;SDS011;25592;49.986;11.618;2024-02-15T01:21:42;173.23;;;48.47;;
39924;SDS011;25592;49.986;11.618;2024-02-15T01:24:28;173.17;;;49.17;;
39924;SDS011;25592;49.986;11.618;2024-02-15T01:27:15;171.73;;;47.63;;
39924;SDS011;25592;49.986;11.618;2024-02-15T01:30:00;175.00;;;49.53;;
39924;SDS011;25592;49.986;11.618;2024-02-15T01:32:46;175.43;;;49.00;;
39924;SDS011;25592;49.986;11.618;2024-02-15T01:35:31;176.40;;;53.23;;
39924;SDS011;25592;49.986;11.618;2024-02-15T01:38:17;173.37;;;48.47;;
39924;SDS011;25592;49.986;11.618;2024-02-15T01:41:02;175.40;;;51.53;;
39924;SDS011;25592;49.986;11.618;2024-02-15T01:43:48;162.23;;;45.13;;
39924;SDS011;25592;49.986;11.618;2024-02-15T01:46:35;167.60;;;49.37;;
39924;SDS011;25592;49.986;11.618;2024-02-15T01:49:21;169.17;;;50.20;;
39924;SDS011;25592;49.986;11.618;2024-02-15T01:52:07;169.67;;;49.40;;
39924;SDS011;25592;49.986;11.618;2024-02-15T01:54:54;169.43;;;48.27;;
39924;SDS011;25592;49.986;11.618;2024-02-15T01:57:39;172.57;;;50.53;;
39924;SDS011;25592;49.986;11.618;2024-02-15T02:00:28;171.03;;;50.37;;
39924;SDS011;25592;49.986;11.618;2024-02-15T02:03:15;169.13;;;49.23;;
39924;SDS011;25592;49.986;11.618;2024-02-15T02:06:01;169.70;;;49.50;;
39924;SDS011;25592;49.986;11.618;2024-02-15T02:08:48;169.23;;;49.47;;
39924;SDS011;25592;49.986;11.618;2024-02-15T02:11:33;169.80;;;48.70;;
39924;SDS011;25592;49.986;11.618;2024-02-15T02:14:19;171.43;;;48.70;;
39924;SDS011;25592;49.986;11.618;2024-02-15T02:17:12;178.00;;;55.03;;
39924;SDS011;25592;49.986;11.618;2024-02-15T02:20:01;174.60;;;51.40;;
39924;SDS011;25592;49.986;11.618;2024-02-15T02:25:41;171.83;;;53.43;;
39924;SDS011;25592;49.986;11.618;2024-02-15T02:28:28;171.17;;;51.07;;
39924;SDS011;25592;49.986;11.618;2024-02-15T02:31:13;172.80;;;50.30;;
39924;SDS011;25592;49.986;11.618;2024-02-15T02:33:59;175.37;;;51.63;;
39924;SDS011;25592;49.986;11.618;2024-02-15T02:36:44;175.13;;;51.00;;
39924;SDS011;25592;49.986;11.618;2024-02-15T02:39:32;171.93;;;50.40;;
39924;SDS011;25592;49.986;11.618;2024-02-15T02:42:17;174.17;;;49.97;;
39924;SDS011;25592;49.986;11.618;2024-02-15T02:45:04;169.80;;;50.03;;
39924;SDS011;25592;49.986;11.618;2024-02-15T02:47:50;179.20;;;58.63;;
39924;SDS011;25592;49.986;11.618;2024-02-15T02:50:38;174.50;;;51.93;;
39924;SDS011;25592;49.986;11.618;2024-02-15T02:53:24;175.77;;;52.07;;
39924;SDS011;25592;49.986;11.618;2024-02-15T02:56:09;175.00;;;51.73;;
39924;SDS011;25592;49.986;11.618;2024-02-15T02:58:54;170.53;;;49.80;;
39924;SDS011;25592;49.986;11.618;2024-02-15T03:01:40;173.07;;;51.70;;
39924;SDS011;25592;49.986;11.618;2024-02-15T03:04:27;170.77;;;50.43;;
39924;SDS011;25592;49.986;11.618;2024-02-15T03:07:12;170.17;;;50.07;;
39924;SDS011;25592;49.986;11.618;2024-02-15T03:10:01;169.70;;;50.77;;
39924;SDS011;25592;49.986;11.618;2024-02-15T03:12:53;150.77;;;46.65;;
39924;SDS011;25592;49.986;11.618;2024-02-15T03:15:38;168.13;;;50.53;;
39924;SDS011;25592;49.986;11.618;2024-02-15T03:18:26;170.03;;;52.73;;
39924;SDS011;25592;49.986;11.618;2024-02-15T03:21:12;165.93;;;50.40;;
39924;SDS011;25592;49.986;11.618;2024-02-15T03:23:57;164.93;;;49.10;;
39924;SDS011;25592;49.986;11.618;2024-02-15T03:26:43;165.73;;;49.23;;
39924;SDS011;25592;49.986;11.618;2024-02-15T03:29:28;165.47;;;50.27;;
39924;SDS011;25592;49.986;11.618;2024-02-15T03:32:14;163.90;;;48.93;;
39924;SDS011;25592;49.986;11.618;2024-02-15T03:35:00;165.57;;;50.57;;
39924;SDS011;25592;49.986;11.618;2024-02-15T03:37:46;166.10;;;49.87;;
39924;SDS011;25592;49.986;11.618;2024-02-15T03:40:31;166.80;;;49.43;;
39924;SDS011;25592;49.986;11.618;2024-02-15T03:43:17;167.30;;;50.27;;
39924;SDS011;25592;49.986;11.618;2024-02-15T03:46:02;169.30;;;52.80;;
39924;SDS011;25592;49.986;11.618;2024-02-15T03:48:48;167.40;;;48.73;;
39924;SDS011;25592;49.986;11.618;2024-02-15T03:51:36;170.73;;;49.97;;
39924;SDS011;25592;49.986;11.618;2024-02-15T03:54:22;171.07;;;48.57;;
39924;SDS011;25592;49.986;11.618;2024-02-15T03:57:08;171.07;;;50.50;;
39924;SDS011;25592;49.986;11.618;2024-02-15T03:59:56;171.33;;;53.17;;
39924;SDS011;25592;49.986;11.618;2024-02-15T04:02:42;173.37;;;50.17;;
39924;SDS011;25592;49.986;11.618;2024-02-15T04:05:28;173.40;;;51.63;;
39924;SDS011;25592;49.986;11.618;2024-02-15T04:08:14;174.03;;;50.43;;
39924;SDS011;25592;49.986;11.618;2024-02-15T04:11:00;171.47;;;48.87;;
39924;SDS011;25592;49.986;11.618;2024-02-15T04:13:46;173.67;;;49.37;;
39924;SDS011;25592;49.986;11.618;2024-02-15T04:16:31;172.57;;;49.50;;
39924;SDS011;25592;49.986;11.618;2024-02-15T04:19:21;170.80;;;48.90;;
39924;SDS011;25592;49.986;11.618;2024-02-15T04:22:07;172.33;;;50.13;;
39924;SDS011;25592;49.986;11.618;2024-02-15T04:24:52;173.23;;;49.43;;
39924;SDS011;25592;49.986;11.618;2024-02-15T04:27:38;172.20;;;49.63;;
39924;SDS011;25592;49.986;11.618;2024-02-15T04:30:24;174.27;;;49.70;;
39924;SDS011;25592;49.986;11.618;2024-02-15T04:33:10;175.73;;;52.23;;
39924;SDS011;25592;49.986;11.618;2024-02-15T04:35:56;175.80;;;50.30;;
39924;SDS011;25592;49.986;11.618;2024-02-15T04:38:43;170.97;;;49.10;;
39924;SDS011;25592;49.986;11.618;2024-02-15T04:41:29;172.17;;;47.93;;
39924;SDS011;25592;49.986;11.618;2024-02-15T04:44:14;171.90;;;48.27;;
39924;SDS011;25592;49.986;11.618;2024-02-15T04:47:01;173.33;;;49.67;;
39924;SDS011;25592;49.986;11.618;2024-02-15T04:49:48;171.80;;;50.00;;
39924;SDS011;25592;49.986;11.618;2024-02-15T04:52:34;172.57;;;49.00;;
39924;SDS011;25592;49.986;11.618;2024-02-15T04:55:19;171.77;;;48.83;;
39924;SDS011;25592;49.986;11.618;2024-02-15T04:58:08;174.93;;;51.97;;
39924;SDS011;25592;49.986;11.618;2024-02-15T05:00:55;173.23;;;49.10;;
39924;SDS011;25592;49.986;11.618;2024-02-15T05:03:45;171.67;;;49.93;;
39924;SDS011;25592;49.986;11.618;2024-02-15T05:06:31;169.07;;;49.37;;
39924;SDS011;25592;49.986;11.618;2024-02-15T05:09:17;174.77;;;51.97;;
39924;SDS011;25592;49.986;11.618;2024-02-15T05:12:03;172.00;;;49.13;;
39924;SDS011;25592;49.986;11.618;2024-02-15T05:14:50;173.87;;;49.77;;
39924;SDS011;25592;49.986;11.618;2024-02-15T05:17:37;171.90;;;47.50;;
39924;SDS011;25592;49.986;11.618;2024-02-15T05:20:25;170.27;;;51.00;;
39924;SDS011;25592;49.986;11.618;2024-02-15T05:23:11;172.60;;;50.80;;
39924;SDS011;25592;49.986;11.618;2024-02-15T05:25:57;173.63;;;49.80;;
39924;SDS011;25592;49.986;11.618;2024-02-15T05:28:43;173.07;;;50.17;;
39924;SDS011;25592;49.986;11.618;2024-02-15T05:31:28;171.37;;;48.33;;
39924;SDS011;25592;49.986;11.618;2024-02-15T05:34:14;171.03;;;48.10;;
39924;SDS011;25592;49.986;11.618;2024-02-15T05:36:59;171.53;;;48.57;;
39924;SDS011;25592;49.986;11.618;2024-02-15T05:39:44;169.00;;;48.17;;
39924;SDS011;25592;49.986;11.618;2024-02-15T05:42:30;172.47;;;48.97;;
39924;SDS011;25592;49.986;11.618;2024-02-15T05:48:10;17.63;;;15.90;;
39924;SDS011;25592;49.986;11.618;2024-02-15T05:50:57;25.90;;;15.43;;
39924;SDS011;25592;49.986;11.618;2024-02-15T05:53:44;172.50;;;50.90;;
39924;SDS011;25592;49.986;11.618;2024-02-15T05:56:30;174.47;;;51.07;;
39924;SDS011;25592;49.986;11.618;2024-02-15T05:59:15;125.87;;;39.87;;
39924;SDS011;25592;49.986;11.618;2024-02-15T06:02:01;177.97;;;50.63;;
39924;SDS011;25592;49.986;11.618;2024-02-15T06:04:47;177.47;;;50.37;;
39924;SDS011;25592;49.986;11.618;2024-02-15T06:07:33;188.90;;;52.23;;
39924;SDS011;25592;49.986;11.618;2024-02-15T06:10:19;177.83;;;50.93;;
39924;SDS011;25592;49.986;11.618;2024-02-15T06:13:04;174.33;;;48.97;;
39924;SDS011;25592;49.986;11.618;2024-02-15T06:15:50;177.37;;;52.83;;
39924;SDS011;25592;49.986;11.618;2024-02-15T06:18:39;177.23;;;50.93;;
39924;SDS011;25592;49.986;11.618;2024-02-15T06:21:24;176.10;;;49.23;;
39924;SDS011;25592;49.986;11.618;2024-02-15T06:24:11;178.47;;;51.00;;
39924;SDS011;25592;49.986;11.618;2024-02-15T06:26:56;177.67;;;51.50;;
39924;SDS011;25592;49.986;11.618;2024-02-15T06:29:45;176.93;;;50.70;;
39924;SDS011;25592;49.986;11.618;2024-02-15T06:32:49;102.90;;;32.40;;
39924;SDS011;25592;49.986;11.618;2024-02-15T06:35:52;110.30;;;31.83;;
39924;SDS011;25592;49.986;11.618;2024-02-15T06:38:56;177.80;;;52.10;;
39924;SDS011;25592;49.986;11.618;2024-02-15T06:42:01;176.60;;;48.43;;
39924;SDS011;25592;49.986;11.618;2024-02-15T06:44:47;176.47;;;49.97;;
39924;SDS011;25592;49.986;11.618;2024-02-15T06:47:34;171.97;;;49.53;;
39924;SDS011;25592;49.986;11.618;2024-02-15T06:50:20;108.20;;;34.97;;
39924;SDS011;25592;49.986;11.618;2024-02-15T06:53:05;184.77;;;59.90;;
39924;SDS011;25592;49.986;11.618;2024-02-15T06:55:51;180.20;;;51.83;;
39924;SDS011;25592;49.986;11.618;2024-02-15T06:58:37;178.53;;;51.90;;
39924;SDS011;25592;49.986;11.618;2024-02-15T07:01:23;173.13;;;49.90;;
39924;SDS011;25592;49.986;11.618;2024-02-15T07:04:10;179.77;;;52.70;;
39924;SDS011;25592;49.986;11.618;2024-02-15T07:06:55;165.70;;;48.47;;
39924;SDS011;25592;49.986;11.618;2024-02-15T07:09:41;159.70;;;47.27;;
39924;SDS011;25592;49.986;11.618;2024-02-15T07:12:27;174.27;;;51.27;;
39924;SDS011;25592;49.986;11.618;2024-02-15T07:15:13;171.20;;;49.13;;
39924;SDS011;25592;49.986;11.618;2024-02-15T07:17:58;147.50;;;48.30;;
39924;SDS011;25592;49.986;11.618;2024-02-15T07:20:45;61.20;;;23.57;;
39924;SDS011;25592;49.986;11.618;2024-02-15T07:23:30;47.27;;;22.33;;
39924;SDS011;25592;49.986;11.618;2024-02-15T07:26:20;62.03;;;24.37;;
39924;SDS011;25592;49.986;11.618;2024-02-15T07:29:09;51.87;;;22.57;;
39924;SDS011;25592;49.986;11.618;2024-02-15T07:31:55;26.27;;;15.97;;
39924;SDS011;25592;49.986;11.618;2024-02-15T07:34:42;90.53;;;32.93;;
39924;SDS011;25592;49.986;11.618;2024-02-15T07:37:28;112.60;;;37.60;;
39924;SDS011;25592;49.986;11.618;2024-02-15T07:40:14;74.10;;;27.10;;
39924;SDS011;25592;49.986;11.618;2024-02-15T07:42:59;34.37;;;17.73;;
39924;SDS011;25592;49.986;11.618;2024-02-15T07:45:45;56.63;;;22.93;;
39924;SDS011;25592;49.986;11.618;2024-02-15T07:48:33;28.07;;;15.07;;
39924;SDS011;25592;49.986;11.618;2024-02-15T07:51:19;86.87;;;28.83;;
39924;SDS011;25592;49.986;11.618;2024-02-15T07:54:05;100.37;;;32.97;;
39924;SDS011;25592;49.986;11.618;2024-02-15T07:56:51;30.23;;;15.73;;
39924;SDS011;25592;49.986;11.618;2024-02-15T07:59:37;77.50;;;26.97;;
39924;SDS011;25592;49.986;11.618;2024-02-15T08:02:24;104.97;;;33.90;;
39924;SDS011;25592;49.986;11.618;2024-02-15T08:05:13;163.83;;;46.80;;
39924;SDS011;25592;49.986;11.618;2024-02-15T08:07:59;93.23;;;35.30;;
39924;SDS011;25592;49.986;11.618;2024-02-15T08:10:44;163.97;;;47.13;;
39924;SDS011;25592;49.986;11.618;2024-02-15T08:13:30;153.73;;;45.67;;
39924;SDS011;25592;49.986;11.618;2024-02-15T08:16:16;101.90;;;33.60;;
39924;SDS011;25592;49.986;11.618;2024-02-15T08:19:03;84.73;;;30.93;;
39924;SDS011;25592;49.986;11.618;2024-02-15T08:21:50;75.53;;;28.13;;
39924;SDS011;25592;49.986;11.618;2024-02-15T08:24:36;148.33;;;44.07;;
39924;SDS011;25592;49.986;11.618;2024-02-15T08:27:21;39.83;;;20.83;;
39924;SDS011;25592;49.986;11.618;2024-02-15T08:30:11;59.87;;;25.23;;
39924;SDS011;25592;49.986;11.618;2024-02-15T08:32:58;39.33;;;18.77;;
39924;SDS011;25592;49.986;11.618;2024-02-15T08:35:43;38.53;;;20.07;;
39924;SDS011;25592;49.986;11.618;2024-02-15T08:38:29;24.60;;;14.87;;
39924;SDS011;25592;49.986;11.618;2024-02-15T08:41:14;15.10;;;13.53;;
39924;SDS011;25592;49.986;11.618;2024-02-15T08:44:00;34.73;;;18.77;;
39924;SDS011;25592;49.986;11.618;2024-02-15T08:46:46;13.83;;;12.57;;
39924;SDS011;25592;49.986;11.618;2024-02-15T08:49:34;14.13;;;12.80;;
39924;SDS011;25592;49.986;11.618;2024-02-15T08:52:19;14.13;;;12.80;;
39924;SDS011;25592;49.986;11.618;2024-02-15T08:55:08;15.50;;;14.13;;
39924;SDS011;25592;49.986;11.618;2024-02-15T08:57:54;86.50;;;33.80;;
39924;SDS011;25592;49.986;11.618;2024-02-15T09:00:40;18.77;;;15.07;;
39924;SDS011;25592;49.986;11.618;2024-02-15T09:03:29;61.13;;;23.90;;
39924;SDS011;25592;49.986;11.618;2024-02-15T09:06:15;15.63;;;14.23;;
39924;SDS011;25592;49.986;11.618;2024-02-15T09:09:01;15.90;;;14.40;;
39924;SDS011;25592;49.986;11.618;2024-02-15T09:11:48;15.53;;;13.87;;
39924;SDS011;25592;49.986;11.618;2024-02-15T09:14:34;79.63;;;30.10;;
39924;SDS011;25592;49.986;11.618;2024-02-15T09:17:21;75.27;;;29.70;;
39924;SDS011;25592;49.986;11.618;2024-02-15T09:20:11;27.30;;;18.03;;
39924;SDS011;25592;49.986;11.618;2024-02-15T09:23:00;66.50;;;26.50;;
39924;SDS011;25592;49.986;11.618;2024-02-15T09:25:52;106.45;;;35.22;;
39924;SDS011;25592;49.986;11.618;2024-02-15T09:28:39;45.87;;;22.00;;
39924;SDS011;25592;49.986;11.618;2024-02-15T09:31:25;52.93;;;23.47;;
39924;SDS011;25592;49.986;11.618;2024-02-15T09:34:10;66.47;;;27.17;;
39924;SDS011;25592;49.986;11.618;2024-02-15T09:36:58;40.20;;;19.50;;
39924;SDS011;25592;49.986;11.618;2024-02-15T09:39:44;16.73;;;15.13;;
39924;SDS011;25592;49.986;11.618;2024-02-15T09:42:29;73.37;;;27.70;;
39924;SDS011;25592;49.986;11.618;2024-02-15T09:45:15;78.97;;;29.30;;
39924;SDS011;25592;49.986;11.618;2024-02-15T09:48:03;69.23;;;30.50;;
39924;SDS011;25592;49.986;11.618;2024-02-15T09:50:53;54.77;;;23.57;;
39924;SDS011;25592;49.986;11.618;2024-02-15T09:53:40;44.73;;;21.00;;
39924;SDS011;25592;49.986;11.618;2024-02-15T09:56:26;41.93;;;20.87;;
39924;SDS011;25592;49.986;11.618;2024-02-15T09:59:15;80.20;;;30.37;;
39924;SDS011;25592;49.986;11.618;2024-02-15T10:02:01;71.30;;;25.33;;
39924;SDS011;25592;49.986;11.618;2024-02-15T10:04:47;92.93;;;31.83;;
39924;SDS011;25592;49.986;11.618;2024-02-15T10:07:35;66.90;;;25.43;;
39924;SDS011;25592;49.986;11.618;2024-02-15T10:10:24;16.07;;;14.60;;
39924;SDS011;25592;49.986;11.618;2024-02-15T10:13:13;98.22;;;33.13;;
39924;SDS011;25592;49.986;11.618;2024-02-15T10:15:58;40.57;;;20.43;;
39924;SDS011;25592;49.986;11.618;2024-02-15T10:18:44;38.83;;;20.27;;
39924;SDS011;25592;49.986;11.618;2024-02-15T10:21:32;68.30;;;27.83;;
39924;SDS011;25592;49.986;11.618;2024-02-15T10:24:21;31.43;;;19.97;;
39924;SDS011;25592;49.986;11.618;2024-02-15T10:27:10;39.63;;;20.73;;
39924;SDS011;25592;49.986;11.618;2024-02-15T10:29:56;73.43;;;27.70;;
39924;SDS011;25592;49.986;11.618;2024-02-15T10:33:00;15.30;;;13.53;;
39924;SDS011;25592;49.986;11.618;2024-02-15T10:35:47;57.87;;;25.20;;
39924;SDS011;25592;49.986;11.618;2024-02-15T10:38:32;28.10;;;17.33;;
39924;SDS011;25592;49.986;11.618;2024-02-15T10:41:18;30.27;;;22.37;;
39924;SDS011;25592;49.986;11.618;2024-02-15T10:44:05;36.30;;;19.30;;
39924;SDS011;25592;49.986;11.618;2024-02-15T10:46:52;16.50;;;15.13;;
39924;SDS011;25592;49.986;11.618;2024-02-15T10:49:38;14.93;;;13.40;;
39924;SDS011;25592;49.986;11.618;2024-02-15T10:52:24;14.37;;;13.27;;
39924;SDS011;25592;49.986;11.618;2024-02-15T10:55:19;16.35;;;14.07;;
39924;SDS011;25592;49.986;11.618;2024-02-15T10:58:31;19.42;;;17.50;;
39924;SDS011;25592;49.986;11.618;2024-02-15T11:01:21;15.88;;;14.65;;
39924;SDS011;25592;49.986;11.618;2024-02-15T11:04:08;15.23;;;13.77;;
39924;SDS011;25592;49.986;11.618;2024-02-15T11:06:57;26.87;;;17.30;;
39924;SDS011;25592;49.986;11.618;2024-02-15T11:09:43;17.70;;;14.80;;
39924;SDS011;25592;49.986;11.618;2024-02-15T11:12:29;16.23;;;14.83;;
39924;SDS011;25592;49.986;11.618;2024-02-15T11:24:49;42.63;;;23.10;;
39924;SDS011;25592;49.986;11.618;2024-02-15T11:27:36;17.13;;;15.33;;
39924;SDS011;25592;49.986;11.618;2024-02-15T11:30:33;18.43;;;16.60;;
39924;SDS011;25592;49.986;11.618;2024-02-15T11:33:34;27.97;;;16.90;;
39924;SDS011;25592;49.986;11.618;2024-02-15T11:36:21;125.30;;;40.00;;
39924;SDS011;25592;49.986;11.618;2024-02-15T11:42:30;17.93;;;16.07;;
39924;SDS011;25592;49.986;11.618;2024-02-15T11:45:16;21.23;;;16.27;;
39924;SDS011;25592;49.986;11.618;2024-02-15T11:48:07;21.93;;;19.43;;
39924;SDS011;25592;49.986;11.618;2024-02-15T11:50:56;16.00;;;14.45;;
39924;SDS011;25592;49.986;11.618;2024-02-15T11:53:44;18.90;;;16.97;;
39924;SDS011;25592;49.986;11.618;2024-02-15T11:56:30;13.90;;;12.73;;
39924;SDS011;25592;49.986;11.618;2024-02-15T11:59:18;15.43;;;13.90;;
39924;SDS011;25592;49.986;11.618;2024-02-15T12:02:14;27.27;;;17.37;;
39924;SDS011;25592;49.986;11.618;2024-02-15T12:05:21;15.60;;;13.97;;
39924;SDS011;25592;49.986;11.618;2024-02-15T12:08:25;19.90;;;16.13;;
39924;SDS011;25592;49.986;11.618;2024-02-15T12:11:29;15.77;;;14.20;;
39924;SDS011;25592;49.986;11.618;2024-02-15T12:14:34;15.67;;;13.97;;
39924;SDS011;25592;49.986;11.618;2024-02-15T12:17:38;29.13;;;17.10;;
39924;SDS011;25592;49.986;11.618;2024-02-15T12:20:43;17.77;;;15.83;;
39924;SDS011;25592;49.986;11.618;2024-02-15T12:23:29;16.07;;;14.47;;
39924;SDS011;25592;49.986;11.618;2024-02-15T12:26:20;15.17;;;13.57;;
39924;SDS011;25592;49.986;11.618;2024-02-15T12:29:07;14.50;;;13.30;;
39924;SDS011;25592;49.986;11.618;2024-02-15T12:31:55;17.80;;;16.23;;
39924;SDS011;25592;49.986;11.618;2024-02-15T12:34:40;17.97;;;15.20;;
39924;SDS011;25592;49.986;11.618;2024-02-15T12:37:29;16.80;;;15.37;;
39924;SDS011;25592;49.986;11.618;2024-02-15T12:40:19;15.93;;;14.57;;
39924;SDS011;25592;49.986;11.618;2024-02-15T12:43:07;15.45;;;14.00;;
39924;SDS011;25592;49.986;11.618;2024-02-15T12:45:54;37.33;;;20.57;;
39924;SDS011;25592;49.986;11.618;2024-02-15T12:48:42;16.40;;;14.63;;
39924;SDS011;25592;49.986;11.618;2024-02-15T12:51:30;50.83;;;22.27;;
39924;SDS011;25592;49.986;11.618;2024-02-15T12:54:19;15.43;;;13.83;;
39924;SDS011;25592;49.986;11.618;2024-02-15T12:57:09;22.20;;;14.93;;
39924;SDS011;25592;49.986;11.618;2024-02-15T13:02:45;100.97;;;33.40;;
39924;SDS011;25592;49.986;11.618;2024-02-15T13:05:34;137.90;;;44.27;;
39924;SDS011;25592;49.986;11.618;2024-02-15T13:08:24;122.10;;;37.90;;
39924;SDS011;25592;49.986;11.618;2024-02-15T13:11:09;51.43;;;22.30;;
39924;SDS011;25592;49.986;11.618;2024-02-15T13:13:57;20.60;;;18.63;;
39924;SDS011;25592;49.986;11.618;2024-02-15T13:16:43;18.03;;;16.23;;
39924;SDS011;25592;49.986;11.618;2024-02-15T13:19:30;15.07;;;13.53;;
39924;SDS011;25592;49.986;11.618;2024-02-15T13:22:16;15.23;;;13.83;;
39924;SDS011;25592;49.986;11.618;2024-02-15T13:25:03;15.20;;;13.67;;
39924;SDS011;25592;49.986;11.618;2024-02-15T13:27:49;15.93;;;14.33;;
39924;SDS011;25592;49.986;11.618;2024-02-15T13:30:36;15.47;;;14.03;;
39924;SDS011;25592;49.986;11.618;2024-02-15T13:33:22;15.03;;;13.57;;
39924;SDS011;25592;49.986;11.618;2024-02-15T13:36:08;15.43;;;13.97;;
39924;SDS011;25592;49.986;11.618;2024-02-15T13:38:55;14.47;;;13.00;;
39924;SDS011;25592;49.986;11.618;2024-02-15T13:41:42;14.43;;;13.03;;
39924;SDS011;25592;49.986;11.618;2024-02-15T13:44:28;12.40;;;11.37;;
39924;SDS011;25592;49.986;11.618;2024-02-15T13:47:15;15.67;;;14.33;;
39924;SDS011;25592;49.986;11.618;2024-02-15T13:50:01;15.50;;;14.27;;
39924;SDS011;25592;49.986;11.618;2024-02-15T13:52:47;24.30;;;22.13;;
39924;SDS011;25592;49.986;11.618;2024-02-15T13:55:33;15.43;;;14.03;;
39924;SDS011;25592;49.986;11.618;2024-02-15T13:58:19;16.77;;;15.27;;
39924;SDS011;25592;49.986;11.618;2024-02-15T14:01:04;15.83;;;14.40;;
39924;SDS011;25592;49.986;11.618;2024-02-15T14:03:50;14.37;;;13.00;;
39924;SDS011;25592;49.986;11.618;2024-02-15T14:06:36;15.07;;;13.77;;
39924;SDS011;25592;49.986;11.618;2024-02-15T14:09:22;15.27;;;13.93;;
39924;SDS011;25592;49.986;11.618;2024-02-15T14:12:11;13.37;;;12.17;;
39924;SDS011;25592;49.986;11.618;2024-02-15T14:14:56;14.90;;;13.50;;
39924;SDS011;25592;49.986;11.618;2024-02-15T14:17:42;13.13;;;11.97;;
39924;SDS011;25592;49.986;11.618;2024-02-15T14:20:32;17.50;;;16.00;;
39924;SDS011;25592;49.986;11.618;2024-02-15T14:23:17;14.23;;;12.90;;
39924;SDS011;25592;49.986;11.618;2024-02-15T14:26:03;14.87;;;13.53;;
39924;SDS011;25592;49.986;11.618;2024-02-15T14:28:49;14.23;;;12.93;;
39924;SDS011;25592;49.986;11.618;2024-02-15T14:31:34;14.80;;;13.50;;
39924;SDS011;25592;49.986;11.618;2024-02-15T14:34:38;13.53;;;12.33;;
39924;SDS011;25592;49.986;11.618;2024-02-15T14:37:26;17.70;;;16.10;;
39924;SDS011;25592;49.986;11.618;2024-02-15T14:40:11;15.53;;;13.93;;
39924;SDS011;25592;49.986;11.618;2024-02-15T14:43:02;14.77;;;13.43;;
39924;SDS011;25592;49.986;11.618;2024-02-15T14:45:51;16.07;;;14.60;;
39924;SDS011;25592;49.986;11.618;2024-02-15T14:48:38;13.93;;;12.83;;
39924;SDS011;25592;49.986;11.618;2024-02-15T14:51:28;14.40;;;13.17;;
39924;SDS011;25592;49.986;11.618;2024-02-15T14:54:16;15.93;;;14.40;;
39924;SDS011;25592;49.986;11.618;2024-02-15T14:57:08;16.60;;;15.00;;
39924;SDS011;25592;49.986;11.618;2024-02-15T14:59:54;14.77;;;13.47;;
39924;SDS011;25592;49.986;11.618;2024-02-15T15:02:40;14.57;;;13.20;;
39924;SDS011;25592;49.986;11.618;2024-02-15T15:05:28;16.20;;;14.63;;
39924;SDS011;25592;49.986;11.618;2024-02-15T15:08:32;14.53;;;13.17;;
39924;SDS011;25592;49.986;11.618;2024-02-15T15:11:37;145.97;;;50.50;;
39924;SDS011;25592;49.986;11.618;2024-02-15T15:14:41;144.80;;;49.97;;
39924;SDS011;25592;49.986;11.618;2024-02-15T15:17:31;146.53;;;50.57;;
39924;SDS011;25592;49.986;11.618;2024-02-15T15:20:16;146.13;;;50.30;;
39924;SDS011;25592;49.986;11.618;2024-02-15T15:23:03;147.63;;;51.60;;
39924;SDS011;25592;49.986;11.618;2024-02-15T15:25:51;147.77;;;51.70;;
39924;SDS011;25592;49.986;11.618;2024-02-15T15:28:37;147.13;;;50.00;;
39924;SDS011;25592;49.986;11.618;2024-02-15T15:31:23;147.90;;;51.17;;
39924;SDS011;25592;49.986;11.618;2024-02-15T15:34:08;150.63;;;52.67;;
39924;SDS011;25592;49.986;11.618;2024-02-15T15:36:54;149.00;;;51.80;;
39924;SDS011;25592;49.986;11.618;2024-02-15T15:39:41;150.40;;;51.97;;
39924;SDS011;25592;49.986;11.618;2024-02-15T15:42:27;149.03;;;51.30;;
39924;SDS011;25592;49.986;11.618;2024-02-15T15:45:12;149.30;;;51.13;;
39924;SDS011;25592;49.986;11.618;2024-02-15T15:47:58;152.57;;;56.97;;
39924;SDS011;25592;49.986;11.618;2024-02-15T15:50:45;146.23;;;50.03;;
39924;SDS011;25592;49.986;11.618;2024-02-15T15:53:39;153.67;;;49.70;;
39924;SDS011;25592;49.986;11.618;2024-02-15T15:56:25;155.50;;;51.27;;
39924;SDS011;25592;49.986;11.618;2024-02-15T15:59:11;157.37;;;51.07;;
39924;SDS011;25592;49.986;11.618;2024-02-15T16:01:56;159.20;;;51.47;;
39924;SDS011;25592;49.986;11.618;2024-02-15T16:04:42;148.77;;;49.50;;
39924;SDS011;25592;49.986;11.618;2024-02-15T16:07:28;148.60;;;51.20;;
39924;SDS011;25592;49.986;11.618;2024-02-15T16:10:14;147.43;;;51.07;;
39924;SDS011;25592;49.986;11.618;2024-02-15T16:13:00;146.83;;;50.40;;
39924;SDS011;25592;49.986;11.618;2024-02-15T16:15:46;145.87;;;49.77;;
39924;SDS011;25592;49.986;11.618;2024-02-15T16:18:31;146.03;;;50.33;;